sensor_id;sensor_type;location;lat;lon;timestamp;temperature;humidity
10433;DHT22;5263;48.680;9.004;2023-07-31T00:00:26;15.10;99.90
10433;DHT22;5263;48.680;9.004;2023-07-31T00:02:52;15.10;99.90
10433;DHT22;5263;48.680;9.004;2023-07-31T00:05:18;14.90;99.90
10433;DHT22;5263;48.680;9.004;2023-07-31T00:07:43;14.80;99.90
10433;DHT22;5263;48.680;9.004;2023-07-31T00:10:09;14.70;99.90
10433;DHT22;5263;48.680;9.004;2023-07-31T00:12:35;14.70;99.90
10433;DHT22;5263;48.680;9.004;2023-07-31T00:15:01;14.70;99.90
10433;DHT22;5263;48.680;9.004;2023-07-31T00:17:26;14.50;99.90
10433;DHT22;5263;48.680;9.004;2023-07-31T00:19:52;14.40;99.90
10433;DHT22;5263;48.680;9.004;2023-07-31T00:22:17;14.50;99.90
10433;DHT22;5263;48.680;9.004;2023-07-31T00:24:43;14.60;99.90
10433;DHT22;5263;48.680;9.004;2023-07-31T00:27:08;14.60;99.90
10433;DHT22;5263;48.680;9.004;2023-07-31T00:29:34;14.50;99.90
10433;DHT22;5263;48.680;9.004;2023-07-31T00:32:00;14.40;99.90
10433;DHT22;5263;48.680;9.004;2023-07-31T00:34:26;14.30;99.90
10433;DHT22;5263;48.680;9.004;2023-07-31T00:36:51;14.30;99.90
10433;DHT22;5263;48.680;9.004;2023-07-31T00:39:17;14.20;99.90
10433;DHT22;5263;48.680;9.004;2023-07-31T00:41:42;14.20;99.90
10433;DHT22;5263;48.680;9.004;2023-07-31T00:44:08;14.20;99.90
10433;DHT22;5263;48.680;9.004;2023-07-31T00:46:33;14.10;99.90
10433;DHT22;5263;48.680;9.004;2023-07-31T00:48:59;14.20;99.90
10433;DHT22;5263;48.680;9.004;2023-07-31T00:51:25;14.20;99.90
10433;DHT22;5263;48.680;9.004;2023-07-31T00:53:50;14.20;99.90
10433;DHT22;5263;48.680;9.004;2023-07-31T00:56:19;14.20;99.90
10433;DHT22;5263;48.680;9.004;2023-07-31T00:58:45;14.10;99.90
10433;DHT22;5263;48.680;9.004;2023-07-31T01:01:16;14.00;99.90
10433;DHT22;5263;48.680;9.004;2023-07-31T01:03:42;14.00;99.90
10433;DHT22;5263;48.680;9.004;2023-07-31T01:08:48;14.10;99.90
10433;DHT22;5263;48.680;9.004;2023-07-31T01:11:31;14.00;99.90
10433;DHT22;5263;48.680;9.004;2023-07-31T01:13:58;13.90;99.90
10433;DHT22;5263;48.680;9.004;2023-07-31T01:16:25;13.90;99.90
10433;DHT22;5263;48.680;9.004;2023-07-31T01:18:51;13.80;99.90
10433;DHT22;5263;48.680;9.004;2023-07-31T01:24:19;13.90;99.90
10433;DHT22;5263;48.680;9.004;2023-07-31T01:26:57;13.90;99.90
10433;DHT22;5263;48.680;9.004;2023-07-31T01:32:08;13.80;99.90
10433;DHT22;5263;48.680;9.004;2023-07-31T01:34:35;13.80;99.90
10433;DHT22;5263;48.680;9.004;2023-07-31T01:37:02;13.60;99.90
10433;DHT22;5263;48.680;9.004;2023-07-31T01:39:28;13.60;99.90
10433;DHT22;5263;48.680;9.004;2023-07-31T01:41:54;13.70;99.90
10433;DHT22;5263;48.680;9.004;2023-07-31T01:44:19;13.60;99.90
10433;DHT22;5263;48.680;9.004;2023-07-31T01:46:45;13.50;99.90
10433;DHT22;5263;48.680;9.004;2023-07-31T01:49:11;13.50;99.90
10433;DHT22;5263;48.680;9.004;2023-07-31T01:51:36;13.40;99.90
10433;DHT22;5263;48.680;9.004;2023-07-31T01:54:02;13.50;99.90
10433;DHT22;5263;48.680;9.004;2023-07-31T01:56:28;13.40;99.90
10433;DHT22;5263;48.680;9.004;2023-07-31T01:58:53;13.50;99.90
10433;DHT22;5263;48.680;9.004;2023-07-31T02:01:19;13.70;99.90
10433;DHT22;5263;48.680;9.004;2023-07-31T02:03:44;13.80;99.90
10433;DHT22;5263;48.680;9.004;2023-07-31T02:06:10;13.70;99.90
10433;DHT22;5263;48.680;9.004;2023-07-31T02:08:36;13.70;99.90
10433;DHT22;5263;48.680;9.004;2023-07-31T02:11:01;13.70;99.90
10433;DHT22;5263;48.680;9.004;2023-07-31T02:13:27;13.90;99.90
10433;DHT22;5263;48.680;9.004;2023-07-31T02:15:53;13.80;99.90
10433;DHT22;5263;48.680;9.004;2023-07-31T02:18:19;13.80;99.90
10433;DHT22;5263;48.680;9.004;2023-07-31T02:20:49;13.90;99.90
10433;DHT22;5263;48.680;9.004;2023-07-31T02:23:15;13.90;99.90
10433;DHT22;5263;48.680;9.004;2023-07-31T02:25:41;13.90;99.90
10433;DHT22;5263;48.680;9.004;2023-07-31T02:28:06;13.90;99.90
10433;DHT22;5263;48.680;9.004;2023-07-31T02:30:32;14.00;99.90
10433;DHT22;5263;48.680;9.004;2023-07-31T02:32:57;14.00;99.90
10433;DHT22;5263;48.680;9.004;2023-07-31T02:35:23;14.20;99.90
10433;DHT22;5263;48.680;9.004;2023-07-31T02:37:48;14.20;99.90
10433;DHT22;5263;48.680;9.004;2023-07-31T02:40:14;14.10;99.90
10433;DHT22;5263;48.680;9.004;2023-07-31T02:42:40;13.10;99.90
10433;DHT22;5263;48.680;9.004;2023-07-31T02:45:06;14.00;99.90
10433;DHT22;5263;48.680;9.004;2023-07-31T02:47:31;14.00;99.90
10433;DHT22;5263;48.680;9.004;2023-07-31T02:49:57;14.00;99.90
10433;DHT22;5263;48.680;9.004;2023-07-31T02:52:23;14.10;99.90
10433;DHT22;5263;48.680;9.004;2023-07-31T02:54:48;14.10;99.90
10433;DHT22;5263;48.680;9.004;2023-07-31T02:57:14;14.10;99.90
10433;DHT22;5263;48.680;9.004;2023-07-31T02:59:40;14.00;99.90
10433;DHT22;5263;48.680;9.004;2023-07-31T03:02:06;14.00;99.90
10433;DHT22;5263;48.680;9.004;2023-07-31T03:04:31;14.10;99.90
10433;DHT22;5263;48.680;9.004;2023-07-31T03:06:57;14.20;99.90
10433;DHT22;5263;48.680;9.004;2023-07-31T03:09:22;14.20;99.90
10433;DHT22;5263;48.680;9.004;2023-07-31T03:11:48;14.20;99.90
10433;DHT22;5263;48.680;9.004;2023-07-31T03:14:13;14.20;99.90
10433;DHT22;5263;48.680;9.004;2023-07-31T03:16:39;14.10;99.90
10433;DHT22;5263;48.680;9.004;2023-07-31T03:19:04;14.20;99.90
10433;DHT22;5263;48.680;9.004;2023-07-31T03:21:30;14.30;99.90
10433;DHT22;5263;48.680;9.004;2023-07-31T03:23:56;14.30;99.90
10433;DHT22;5263;48.680;9.004;2023-07-31T03:26:21;14.30;99.90
10433;DHT22;5263;48.680;9.004;2023-07-31T03:28:47;14.30;99.90
10433;DHT22;5263;48.680;9.004;2023-07-31T03:31:12;14.20;99.90
10433;DHT22;5263;48.680;9.004;2023-07-31T03:33:38;14.40;99.90
10433;DHT22;5263;48.680;9.004;2023-07-31T03:36:04;14.40;99.90
10433;DHT22;5263;48.680;9.004;2023-07-31T03:38:29;14.50;99.90
10433;DHT22;5263;48.680;9.004;2023-07-31T03:40:55;14.50;99.90
10433;DHT22;5263;48.680;9.004;2023-07-31T03:43:21;14.50;99.90
10433;DHT22;5263;48.680;9.004;2023-07-31T03:45:46;14.30;99.90
10433;DHT22;5263;48.680;9.004;2023-07-31T03:48:14;14.30;99.90
10433;DHT22;5263;48.680;9.004;2023-07-31T03:50:40;14.30;99.90
10433;DHT22;5263;48.680;9.004;2023-07-31T03:53:05;14.30;99.90
10433;DHT22;5263;48.680;9.004;2023-07-31T03:55:31;14.40;99.90
10433;DHT22;5263;48.680;9.004;2023-07-31T03:57:57;14.30;99.90
10433;DHT22;5263;48.680;9.004;2023-07-31T04:00:22;14.40;99.90
10433;DHT22;5263;48.680;9.004;2023-07-31T04:02:48;14.60;99.90
10433;DHT22;5263;48.680;9.004;2023-07-31T04:05:13;14.60;99.90
10433;DHT22;5263;48.680;9.004;2023-07-31T04:07:39;14.70;99.90
10433;DHT22;5263;48.680;9.004;2023-07-31T04:10:05;14.80;99.90
10433;DHT22;5263;48.680;9.004;2023-07-31T04:12:30;14.70;99.90
10433;DHT22;5263;48.680;9.004;2023-07-31T04:14:56;14.70;99.90
10433;DHT22;5263;48.680;9.004;2023-07-31T04:17:21;14.70;99.90
10433;DHT22;5263;48.680;9.004;2023-07-31T04:19:47;14.60;99.90
10433;DHT22;5263;48.680;9.004;2023-07-31T04:22:13;14.80;99.90
10433;DHT22;5263;48.680;9.004;2023-07-31T04:24:38;14.80;99.90
10433;DHT22;5263;48.680;9.004;2023-07-31T04:27:04;14.90;99.90
10433;DHT22;5263;48.680;9.004;2023-07-31T04:29:30;14.90;99.90
10433;DHT22;5263;48.680;9.004;2023-07-31T04:31:55;14.70;99.90
10433;DHT22;5263;48.680;9.004;2023-07-31T04:34:21;14.80;99.90
10433;DHT22;5263;48.680;9.004;2023-07-31T04:36:46;14.80;99.90
10433;DHT22;5263;48.680;9.004;2023-07-31T04:39:12;14.80;99.90
10433;DHT22;5263;48.680;9.004;2023-07-31T04:41:37;14.90;99.90
10433;DHT22;5263;48.680;9.004;2023-07-31T04:44:03;14.90;99.90
10433;DHT22;5263;48.680;9.004;2023-07-31T04:46:29;14.90;99.90
10433;DHT22;5263;48.680;9.004;2023-07-31T04:48:55;15.00;99.90
10433;DHT22;5263;48.680;9.004;2023-07-31T04:51:20;15.00;99.90
10433;DHT22;5263;48.680;9.004;2023-07-31T04:53:46;15.00;99.90
10433;DHT22;5263;48.680;9.004;2023-07-31T04:56:12;15.00;99.90
10433;DHT22;5263;48.680;9.004;2023-07-31T04:58:37;15.00;99.90
10433;DHT22;5263;48.680;9.004;2023-07-31T05:01:03;15.10;99.90
10433;DHT22;5263;48.680;9.004;2023-07-31T05:03:31;15.00;99.90
10433;DHT22;5263;48.680;9.004;2023-07-31T05:05:57;15.00;99.90
10433;DHT22;5263;48.680;9.004;2023-07-31T05:08:23;15.10;99.90
10433;DHT22;5263;48.680;9.004;2023-07-31T05:10:48;15.00;99.90
10433;DHT22;5263;48.680;9.004;2023-07-31T05:13:14;15.10;99.90
10433;DHT22;5263;48.680;9.004;2023-07-31T05:15:41;15.10;99.90
10433;DHT22;5263;48.680;9.004;2023-07-31T05:18:06;15.00;99.90
10433;DHT22;5263;48.680;9.004;2023-07-31T05:20:32;15.10;99.90
10433;DHT22;5263;48.680;9.004;2023-07-31T05:22:57;15.10;99.90
10433;DHT22;5263;48.680;9.004;2023-07-31T05:25:23;15.10;99.90
10433;DHT22;5263;48.680;9.004;2023-07-31T05:27:48;15.10;99.90
10433;DHT22;5263;48.680;9.004;2023-07-31T05:30:14;15.10;99.90
10433;DHT22;5263;48.680;9.004;2023-07-31T05:32:40;15.10;99.90
10433;DHT22;5263;48.680;9.004;2023-07-31T05:35:05;15.20;99.90
10433;DHT22;5263;48.680;9.004;2023-07-31T05:37:31;15.10;99.90
10433;DHT22;5263;48.680;9.004;2023-07-31T05:39:57;15.20;99.90
10433;DHT22;5263;48.680;9.004;2023-07-31T05:42:22;15.40;99.90
10433;DHT22;5263;48.680;9.004;2023-07-31T05:44:48;15.40;99.90
10433;DHT22;5263;48.680;9.004;2023-07-31T05:47:13;15.60;99.90
10433;DHT22;5263;48.680;9.004;2023-07-31T05:49:39;15.70;99.90
10433;DHT22;5263;48.680;9.004;2023-07-31T05:52:05;16.60;99.90
10433;DHT22;5263;48.680;9.004;2023-07-31T05:54:31;15.90;99.90
10433;DHT22;5263;48.680;9.004;2023-07-31T05:56:57;16.00;99.90
10433;DHT22;5263;48.680;9.004;2023-07-31T05:59:23;16.10;99.90
10433;DHT22;5263;48.680;9.004;2023-07-31T06:01:48;16.00;99.90
10433;DHT22;5263;48.680;9.004;2023-07-31T06:04:14;16.00;99.90
10433;DHT22;5263;48.680;9.004;2023-07-31T06:06:40;16.20;99.90
10433;DHT22;5263;48.680;9.004;2023-07-31T06:09:06;16.10;99.90
10433;DHT22;5263;48.680;9.004;2023-07-31T06:11:32;16.20;99.90
10433;DHT22;5263;48.680;9.004;2023-07-31T06:13:58;16.20;99.90
10433;DHT22;5263;48.680;9.004;2023-07-31T06:16:25;16.20;99.90
10433;DHT22;5263;48.680;9.004;2023-07-31T06:18:50;16.20;99.90
10433;DHT22;5263;48.680;9.004;2023-07-31T06:21:17;16.40;99.90
10433;DHT22;5263;48.680;9.004;2023-07-31T06:23:42;16.50;99.90
10433;DHT22;5263;48.680;9.004;2023-07-31T06:26:08;16.60;99.90
10433;DHT22;5263;48.680;9.004;2023-07-31T06:28:34;16.70;99.90
10433;DHT22;5263;48.680;9.004;2023-07-31T06:31:00;16.80;99.90
10433;DHT22;5263;48.680;9.004;2023-07-31T06:33:27;16.90;99.90
10433;DHT22;5263;48.680;9.004;2023-07-31T06:35:53;16.80;99.90
10433;DHT22;5263;48.680;9.004;2023-07-31T06:38:22;16.90;99.90
10433;DHT22;5263;48.680;9.004;2023-07-31T06:40:48;17.00;99.90
10433;DHT22;5263;48.680;9.004;2023-07-31T06:43:14;17.00;99.90
10433;DHT22;5263;48.680;9.004;2023-07-31T06:45:40;17.00;99.90
10433;DHT22;5263;48.680;9.004;2023-07-31T06:48:05;17.10;99.90
10433;DHT22;5263;48.680;9.004;2023-07-31T06:50:31;17.00;99.90
10433;DHT22;5263;48.680;9.004;2023-07-31T06:52:57;17.30;99.90
10433;DHT22;5263;48.680;9.004;2023-07-31T06:55:23;17.30;99.90
10433;DHT22;5263;48.680;9.004;2023-07-31T06:57:51;17.40;99.90
10433;DHT22;5263;48.680;9.004;2023-07-31T07:00:18;17.40;99.90
10433;DHT22;5263;48.680;9.004;2023-07-31T07:02:44;17.40;99.90
10433;DHT22;5263;48.680;9.004;2023-07-31T07:05:10;17.50;99.90
10433;DHT22;5263;48.680;9.004;2023-07-31T07:07:35;17.70;99.90
10433;DHT22;5263;48.680;9.004;2023-07-31T07:10:01;17.80;99.90
10433;DHT22;5263;48.680;9.004;2023-07-31T07:12:31;17.90;99.90
10433;DHT22;5263;48.680;9.004;2023-07-31T07:14:57;17.90;99.90
10433;DHT22;5263;48.680;9.004;2023-07-31T07:17:23;17.90;99.90
10433;DHT22;5263;48.680;9.004;2023-07-31T07:19:49;18.00;99.90
10433;DHT22;5263;48.680;9.004;2023-07-31T07:22:14;18.10;99.90
10433;DHT22;5263;48.680;9.004;2023-07-31T07:24:41;18.10;99.90
10433;DHT22;5263;48.680;9.004;2023-07-31T07:27:07;18.20;99.90
10433;DHT22;5263;48.680;9.004;2023-07-31T07:29:34;18.10;99.90
10433;DHT22;5263;48.680;9.004;2023-07-31T07:32:00;17.90;99.90
10433;DHT22;5263;48.680;9.004;2023-07-31T07:34:27;17.80;99.90
10433;DHT22;5263;48.680;9.004;2023-07-31T07:36:53;18.10;99.90
10433;DHT22;5263;48.680;9.004;2023-07-31T07:39:19;18.30;99.90
10433;DHT22;5263;48.680;9.004;2023-07-31T07:41:45;18.40;99.90
10433;DHT22;5263;48.680;9.004;2023-07-31T07:44:11;18.50;99.90
10433;DHT22;5263;48.680;9.004;2023-07-31T07:46:37;18.60;99.90
10433;DHT22;5263;48.680;9.004;2023-07-31T07:49:03;18.40;99.90
10433;DHT22;5263;48.680;9.004;2023-07-31T07:51:28;18.30;99.90
10433;DHT22;5263;48.680;9.004;2023-07-31T07:53:56;18.40;99.90
10433;DHT22;5263;48.680;9.004;2023-07-31T07:56:23;18.00;99.90
10433;DHT22;5263;48.680;9.004;2023-07-31T07:58:49;18.10;99.90
10433;DHT22;5263;48.680;9.004;2023-07-31T08:01:15;18.50;99.90
10433;DHT22;5263;48.680;9.004;2023-07-31T08:03:41;18.90;99.90
10433;DHT22;5263;48.680;9.004;2023-07-31T08:06:07;19.20;99.90
10433;DHT22;5263;48.680;9.004;2023-07-31T08:08:35;19.10;99.90
10433;DHT22;5263;48.680;9.004;2023-07-31T08:11:00;19.40;99.90
10433;DHT22;5263;48.680;9.004;2023-07-31T08:13:26;19.30;99.90
10433;DHT22;5263;48.680;9.004;2023-07-31T08:15:52;19.40;99.90
10433;DHT22;5263;48.680;9.004;2023-07-31T08:18:17;19.40;99.90
10433;DHT22;5263;48.680;9.004;2023-07-31T08:20:43;19.50;99.90
10433;DHT22;5263;48.680;9.004;2023-07-31T08:23:09;19.60;99.90
10433;DHT22;5263;48.680;9.004;2023-07-31T08:25:37;19.90;99.90
10433;DHT22;5263;48.680;9.004;2023-07-31T08:28:04;20.20;99.90
10433;DHT22;5263;48.680;9.004;2023-07-31T08:30:30;20.10;99.90
10433;DHT22;5263;48.680;9.004;2023-07-31T08:32:56;20.10;99.90
10433;DHT22;5263;48.680;9.004;2023-07-31T08:35:22;20.00;99.90
10433;DHT22;5263;48.680;9.004;2023-07-31T08:37:47;20.10;99.90
10433;DHT22;5263;48.680;9.004;2023-07-31T08:40:13;19.90;99.90
10433;DHT22;5263;48.680;9.004;2023-07-31T08:42:46;19.90;99.90
10433;DHT22;5263;48.680;9.004;2023-07-31T08:45:17;20.00;99.90
10433;DHT22;5263;48.680;9.004;2023-07-31T08:47:46;20.00;99.90
10433;DHT22;5263;48.680;9.004;2023-07-31T08:50:17;19.80;99.90
10433;DHT22;5263;48.680;9.004;2023-07-31T08:52:43;20.00;99.90
10433;DHT22;5263;48.680;9.004;2023-07-31T08:55:10;19.90;99.90
10433;DHT22;5263;48.680;9.004;2023-07-31T08:57:37;19.60;99.90
10433;DHT22;5263;48.680;9.004;2023-07-31T09:00:04;19.40;99.90
10433;DHT22;5263;48.680;9.004;2023-07-31T09:02:57;20.20;99.90
10433;DHT22;5263;48.680;9.004;2023-07-31T09:05:23;19.60;99.90
10433;DHT22;5263;48.680;9.004;2023-07-31T09:07:51;19.60;99.90
10433;DHT22;5263;48.680;9.004;2023-07-31T09:10:17;19.60;99.90
10433;DHT22;5263;48.680;9.004;2023-07-31T09:12:42;19.70;99.90
10433;DHT22;5263;48.680;9.004;2023-07-31T09:15:09;19.70;99.90
10433;DHT22;5263;48.680;9.004;2023-07-31T09:17:36;20.10;99.90
10433;DHT22;5263;48.680;9.004;2023-07-31T09:20:28;20.50;99.90
10433;DHT22;5263;48.680;9.004;2023-07-31T09:22:55;20.80;99.90
10433;DHT22;5263;48.680;9.004;2023-07-31T09:27:53;20.80;99.90
10433;DHT22;5263;48.680;9.004;2023-07-31T09:30:19;20.80;99.90
10433;DHT22;5263;48.680;9.004;2023-07-31T09:32:45;20.60;99.90
10433;DHT22;5263;48.680;9.004;2023-07-31T09:35:21;20.50;99.90
10433;DHT22;5263;48.680;9.004;2023-07-31T09:37:51;20.80;99.90
10433;DHT22;5263;48.680;9.004;2023-07-31T09:40:29;20.80;99.90
10433;DHT22;5263;48.680;9.004;2023-07-31T09:43:00;21.10;99.90
10433;DHT22;5263;48.680;9.004;2023-07-31T09:45:26;21.10;99.90
10433;DHT22;5263;48.680;9.004;2023-07-31T09:47:53;21.30;99.90
10433;DHT22;5263;48.680;9.004;2023-07-31T09:50:21;21.30;99.90
10433;DHT22;5263;48.680;9.004;2023-07-31T09:52:46;21.20;99.90
10433;DHT22;5263;48.680;9.004;2023-07-31T09:55:12;21.00;99.90
10433;DHT22;5263;48.680;9.004;2023-07-31T09:57:43;20.60;99.90
10433;DHT22;5263;48.680;9.004;2023-07-31T10:00:10;20.80;99.90
10433;DHT22;5263;48.680;9.004;2023-07-31T10:02:37;21.00;99.90
10433;DHT22;5263;48.680;9.004;2023-07-31T10:05:04;21.30;99.90
10433;DHT22;5263;48.680;9.004;2023-07-31T10:07:31;21.40;99.90
10433;DHT22;5263;48.680;9.004;2023-07-31T10:10:00;21.30;99.90
10433;DHT22;5263;48.680;9.004;2023-07-31T10:12:26;21.60;99.90
10433;DHT22;5263;48.680;9.004;2023-07-31T10:14:55;21.70;99.90
10433;DHT22;5263;48.680;9.004;2023-07-31T10:17:22;21.40;99.90
10433;DHT22;5263;48.680;9.004;2023-07-31T10:19:49;21.50;99.90
10433;DHT22;5263;48.680;9.004;2023-07-31T10:22:15;21.70;99.90
10433;DHT22;5263;48.680;9.004;2023-07-31T10:24:45;21.90;99.90
10433;DHT22;5263;48.680;9.004;2023-07-31T10:27:11;21.30;99.90
10433;DHT22;5263;48.680;9.004;2023-07-31T10:29:38;22.70;99.90
10433;DHT22;5263;48.680;9.004;2023-07-31T10:32:06;24.50;99.90
10433;DHT22;5263;48.680;9.004;2023-07-31T10:34:35;26.30;99.20
10433;DHT22;5263;48.680;9.004;2023-07-31T10:40:03;28.30;92.50
10433;DHT22;5263;48.680;9.004;2023-07-31T10:45:44;27.30;91.60
10433;DHT22;5263;48.680;9.004;2023-07-31T10:48:14;26.20;92.30
10433;DHT22;5263;48.680;9.004;2023-07-31T10:50:56;25.60;92.90
10433;DHT22;5263;48.680;9.004;2023-07-31T10:53:32;27.00;92.60
10433;DHT22;5263;48.680;9.004;2023-07-31T10:56:02;28.20;91.00
10433;DHT22;5263;48.680;9.004;2023-07-31T10:58:28;27.20;90.10
10433;DHT22;5263;48.680;9.004;2023-07-31T11:00:59;27.90;91.20
10433;DHT22;5263;48.680;9.004;2023-07-31T11:03:26;27.10;90.30
10433;DHT22;5263;48.680;9.004;2023-07-31T11:05:59;26.50;91.60
10433;DHT22;5263;48.680;9.004;2023-07-31T11:08:31;25.20;94.20
10433;DHT22;5263;48.680;9.004;2023-07-31T11:13:51;24.00;95.90
10433;DHT22;5263;48.680;9.004;2023-07-31T11:16:24;23.00;96.40
10433;DHT22;5263;48.680;9.004;2023-07-31T11:18:51;22.60;97.90
10433;DHT22;5263;48.680;9.004;2023-07-31T11:21:23;22.50;98.30
10433;DHT22;5263;48.680;9.004;2023-07-31T11:23:52;22.30;98.80
10433;DHT22;5263;48.680;9.004;2023-07-31T11:26:18;22.10;99.90
10433;DHT22;5263;48.680;9.004;2023-07-31T11:28:47;21.90;99.90
10433;DHT22;5263;48.680;9.004;2023-07-31T11:31:13;21.60;99.90
10433;DHT22;5263;48.680;9.004;2023-07-31T11:33:39;21.50;99.90
10433;DHT22;5263;48.680;9.004;2023-07-31T11:36:05;21.40;99.90
10433;DHT22;5263;48.680;9.004;2023-07-31T11:38:32;21.60;99.90
10433;DHT22;5263;48.680;9.004;2023-07-31T11:40:59;21.50;99.90
10433;DHT22;5263;48.680;9.004;2023-07-31T11:43:25;21.70;99.90
10433;DHT22;5263;48.680;9.004;2023-07-31T11:45:57;21.50;99.90
10433;DHT22;5263;48.680;9.004;2023-07-31T11:48:29;21.20;99.90
10433;DHT22;5263;48.680;9.004;2023-07-31T11:50:58;21.20;99.90
10433;DHT22;5263;48.680;9.004;2023-07-31T11:53:54;21.20;99.90
10433;DHT22;5263;48.680;9.004;2023-07-31T11:56:21;21.10;99.90
10433;DHT22;5263;48.680;9.004;2023-07-31T11:58:54;21.20;99.90
10433;DHT22;5263;48.680;9.004;2023-07-31T12:01:21;21.20;99.90
10433;DHT22;5263;48.680;9.004;2023-07-31T12:03:47;21.40;99.90
10433;DHT22;5263;48.680;9.004;2023-07-31T12:06:13;21.50;99.90
10433;DHT22;5263;48.680;9.004;2023-07-31T12:08:39;21.50;99.90
10433;DHT22;5263;48.680;9.004;2023-07-31T12:11:06;21.40;99.90
10433;DHT22;5263;48.680;9.004;2023-07-31T12:13:33;21.20;99.90
10433;DHT22;5263;48.680;9.004;2023-07-31T12:16:00;21.30;99.90
10433;DHT22;5263;48.680;9.004;2023-07-31T12:18:29;22.00;99.90
10433;DHT22;5263;48.680;9.004;2023-07-31T12:20:57;21.90;99.90
10433;DHT22;5263;48.680;9.004;2023-07-31T12:23:25;21.50;99.90
10433;DHT22;5263;48.680;9.004;2023-07-31T12:28:26;21.50;99.90
10433;DHT22;5263;48.680;9.004;2023-07-31T12:30:51;21.30;99.90
10433;DHT22;5263;48.680;9.004;2023-07-31T12:33:18;21.30;99.90
10433;DHT22;5263;48.680;9.004;2023-07-31T12:35:46;21.30;99.90
10433;DHT22;5263;48.680;9.004;2023-07-31T12:38:12;21.70;99.90
10433;DHT22;5263;48.680;9.004;2023-07-31T12:40:40;22.10;99.90
10433;DHT22;5263;48.680;9.004;2023-07-31T12:43:06;22.70;99.90
10433;DHT22;5263;48.680;9.004;2023-07-31T12:45:33;23.00;99.90
10433;DHT22;5263;48.680;9.004;2023-07-31T12:47:59;23.00;99.90
10433;DHT22;5263;48.680;9.004;2023-07-31T12:50:25;23.50;99.90
10433;DHT22;5263;48.680;9.004;2023-07-31T12:52:52;24.30;99.90
10433;DHT22;5263;48.680;9.004;2023-07-31T12:55:18;23.90;99.90
10433;DHT22;5263;48.680;9.004;2023-07-31T12:57:44;23.70;99.60
10433;DHT22;5263;48.680;9.004;2023-07-31T13:00:10;23.60;99.80
10433;DHT22;5263;48.680;9.004;2023-07-31T13:02:36;24.40;99.90
10433;DHT22;5263;48.680;9.004;2023-07-31T13:05:02;26.10;98.50
10433;DHT22;5263;48.680;9.004;2023-07-31T13:07:28;25.80;98.10
10433;DHT22;5263;48.680;9.004;2023-07-31T13:09:53;25.70;98.20
10433;DHT22;5263;48.680;9.004;2023-07-31T13:12:19;25.20;99.90
10433;DHT22;5263;48.680;9.004;2023-07-31T13:14:44;24.80;98.00
10433;DHT22;5263;48.680;9.004;2023-07-31T13:17:10;24.30;99.50
10433;DHT22;5263;48.680;9.004;2023-07-31T13:19:36;23.70;99.90
10433;DHT22;5263;48.680;9.004;2023-07-31T13:22:01;23.40;99.90
10433;DHT22;5263;48.680;9.004;2023-07-31T13:24:27;23.40;99.90
10433;DHT22;5263;48.680;9.004;2023-07-31T13:26:52;23.40;99.90
10433;DHT22;5263;48.680;9.004;2023-07-31T13:29:18;23.10;99.90
10433;DHT22;5263;48.680;9.004;2023-07-31T13:31:43;23.00;99.90
10433;DHT22;5263;48.680;9.004;2023-07-31T13:34:09;22.50;99.90
10433;DHT22;5263;48.680;9.004;2023-07-31T13:36:34;22.70;99.90
10433;DHT22;5263;48.680;9.004;2023-07-31T13:39:02;22.50;99.90
10433;DHT22;5263;48.680;9.004;2023-07-31T13:41:28;22.50;99.90
10433;DHT22;5263;48.680;9.004;2023-07-31T13:43:53;22.60;99.90
10433;DHT22;5263;48.680;9.004;2023-07-31T13:46:19;22.90;99.90
10433;DHT22;5263;48.680;9.004;2023-07-31T13:48:45;23.00;99.90
10433;DHT22;5263;48.680;9.004;2023-07-31T13:51:10;22.80;99.90
10433;DHT22;5263;48.680;9.004;2023-07-31T13:53:36;23.20;99.90
10433;DHT22;5263;48.680;9.004;2023-07-31T13:56:02;23.40;99.90
10433;DHT22;5263;48.680;9.004;2023-07-31T13:58:27;23.40;99.90
10433;DHT22;5263;48.680;9.004;2023-07-31T14:00:53;23.40;99.90
10433;DHT22;5263;48.680;9.004;2023-07-31T14:03:18;23.40;99.90
10433;DHT22;5263;48.680;9.004;2023-07-31T14:05:44;23.30;99.90
10433;DHT22;5263;48.680;9.004;2023-07-31T14:08:09;23.20;99.90
10433;DHT22;5263;48.680;9.004;2023-07-31T14:10:35;23.00;99.90
10433;DHT22;5263;48.680;9.004;2023-07-31T14:13:01;22.60;99.90
10433;DHT22;5263;48.680;9.004;2023-07-31T14:15:26;22.30;99.90
10433;DHT22;5263;48.680;9.004;2023-07-31T14:17:52;22.10;99.90
10433;DHT22;5263;48.680;9.004;2023-07-31T14:20:17;21.90;99.90
10433;DHT22;5263;48.680;9.004;2023-07-31T14:22:43;21.80;99.90
10433;DHT22;5263;48.680;9.004;2023-07-31T14:25:09;21.80;99.90
10433;DHT22;5263;48.680;9.004;2023-07-31T14:27:36;21.80;99.90
10433;DHT22;5263;48.680;9.004;2023-07-31T14:30:02;21.80;99.90
10433;DHT22;5263;48.680;9.004;2023-07-31T14:32:27;21.90;99.90
10433;DHT22;5263;48.680;9.004;2023-07-31T14:34:53;22.00;99.90
10433;DHT22;5263;48.680;9.004;2023-07-31T14:37:20;22.10;99.90
10433;DHT22;5263;48.680;9.004;2023-07-31T14:39:45;22.20;99.90
10433;DHT22;5263;48.680;9.004;2023-07-31T14:42:11;22.40;99.90
10433;DHT22;5263;48.680;9.004;2023-07-31T14:44:38;22.80;99.80
10433;DHT22;5263;48.680;9.004;2023-07-31T14:47:03;22.90;99.70
10433;DHT22;5263;48.680;9.004;2023-07-31T14:49:29;22.80;99.90
10433;DHT22;5263;48.680;9.004;2023-07-31T14:51:55;22.80;99.80
10433;DHT22;5263;48.680;9.004;2023-07-31T14:54:21;22.80;99.90
10433;DHT22;5263;48.680;9.004;2023-07-31T14:56:46;23.00;99.80
10433;DHT22;5263;48.680;9.004;2023-07-31T14:59:12;23.10;99.90
10433;DHT22;5263;48.680;9.004;2023-07-31T15:01:38;23.00;99.50
10433;DHT22;5263;48.680;9.004;2023-07-31T15:04:04;22.80;99.90
10433;DHT22;5263;48.680;9.004;2023-07-31T15:06:29;22.80;99.90
10433;DHT22;5263;48.680;9.004;2023-07-31T15:08:55;22.90;99.90
10433;DHT22;5263;48.680;9.004;2023-07-31T15:11:21;22.90;99.90
10433;DHT22;5263;48.680;9.004;2023-07-31T15:13:46;22.80;99.90
10433;DHT22;5263;48.680;9.004;2023-07-31T15:16:12;22.60;99.90
10433;DHT22;5263;48.680;9.004;2023-07-31T15:18:38;22.70;99.90
10433;DHT22;5263;48.680;9.004;2023-07-31T15:21:04;22.80;99.90
10433;DHT22;5263;48.680;9.004;2023-07-31T15:23:31;22.90;99.90
10433;DHT22;5263;48.680;9.004;2023-07-31T15:25:56;22.90;99.90
10433;DHT22;5263;48.680;9.004;2023-07-31T15:28:22;23.00;99.90
10433;DHT22;5263;48.680;9.004;2023-07-31T15:30:48;23.00;99.90
10433;DHT22;5263;48.680;9.004;2023-07-31T15:33:14;23.00;99.90
10433;DHT22;5263;48.680;9.004;2023-07-31T15:35:40;23.20;99.90
10433;DHT22;5263;48.680;9.004;2023-07-31T15:38:06;23.00;99.90
10433;DHT22;5263;48.680;9.004;2023-07-31T15:40:31;23.20;99.90
10433;DHT22;5263;48.680;9.004;2023-07-31T15:42:57;23.00;99.90
10433;DHT22;5263;48.680;9.004;2023-07-31T15:45:23;22.80;99.90
10433;DHT22;5263;48.680;9.004;2023-07-31T15:47:49;22.60;99.90
10433;DHT22;5263;48.680;9.004;2023-07-31T15:50:14;22.40;99.90
10433;DHT22;5263;48.680;9.004;2023-07-31T15:52:40;22.50;99.90
10433;DHT22;5263;48.680;9.004;2023-07-31T15:55:06;22.70;99.90
10433;DHT22;5263;48.680;9.004;2023-07-31T15:57:31;22.70;99.90
10433;DHT22;5263;48.680;9.004;2023-07-31T15:59:57;22.60;99.90
10433;DHT22;5263;48.680;9.004;2023-07-31T16:02:23;22.40;99.90